Airfield :
LOGIN :

Register | Disclaimer

   EN    FR    IT 

 










Legend :    VFR   Marginal VFR   IFR   Intensive IFR   Very Intensive IFR
Visi :
Ceiling :
>= 8 km
>= 3000ft
5 to 8 km
1000 to 3000 ft
1500m to 5 km
500 to 1000 ft
800 to 1500m
200 to 500 ft
< 800m
< 200 ft
Symbols :   Thunderstorms  Fog  Heavy snow  Heavy precipitations  Wind > 20 kt
SIGMETs :     Misc.  Thunderstorms  Icing  Turbulence  Mountain Waves  Volcanic Ashes







- Airport Elevation : 32 ft
- IATA code : LKZ


EGUL - RAF Lakenheath

CURRENT METAR :
  • 210556Z AUTO 25005KT 9999 BKN060 15/13 A3006 RMK AO2 SLP182 T01450125 10151 20118 52019 $

EXPIRED METARs :
  • 210456Z AUTO 22003KT 9999 CLR 13/12 A3004 RMK AO2 SLP176 T01260115 $
  • 210356Z AUTO 22004KT 9999 FEW055 13/11 A3002 RMK AO2 SLP169 T01250111 $

TAF TAF EGUL
Valid from the 20 at 11:00 until the 21 at 17:00 UTC


201100Z 2011/2117 23015G25KT 9999 BKN030 QNH2966INS
BECMG 2013/2014 24015G25KT 8000 -SHRA VCTS BKN040CB QNH2971INS
BECMG 2019/2020 27012KT 9999 NSW SCT045 QNH2985INS
BECMG 2104/2105 24006KT 8000 BR BKN050 QNH3009INS
BECMG 2107/2108 24012KT 9999 NSW OVC050 QNH3011INS TX23/2013Z TN13/2104Z
No reported NOTAMs for that airfield.



MET'MAP, your aeronautical weather chart ! - Copyright ORBIFLY December 2007 - Disclaimer

ORBIFLY MET'MAP TEAM :

Programming & Development : Alexandra Zaïnal
Concept & Development : Baudouin d'Aumeries
Co-Development & Prog : Marc-Olivier Méhu
Technical & hardware support : Manuel Goepfert

Contact : metmap@orbifly.com




SOURCES & CREDITS :

   NOAA